sensor_id;sensor_type;location;lat;lon;timestamp;P1;durP1;ratioP1;P2;durP2;ratioP2
9789;SDS011;4934;50.852;8.098;2024-02-28T00:02:21;31.03;;;13.83;;
9789;SDS011;4934;50.852;8.098;2024-02-28T00:04:47;31.37;;;13.57;;
9789;SDS011;4934;50.852;8.098;2024-02-28T00:07:13;30.30;;;12.93;;
9789;SDS011;4934;50.852;8.098;2024-02-28T00:09:38;36.57;;;13.67;;
9789;SDS011;4934;50.852;8.098;2024-02-28T00:12:04;41.87;;;14.80;;
9789;SDS011;4934;50.852;8.098;2024-02-28T00:14:29;28.90;;;12.93;;
9789;SDS011;4934;50.852;8.098;2024-02-28T00:16:55;36.60;;;13.87;;
9789;SDS011;4934;50.852;8.098;2024-02-28T00:19:21;36.30;;;14.33;;
9789;SDS011;4934;50.852;8.098;2024-02-28T00:21:47;33.37;;;13.73;;
9789;SDS011;4934;50.852;8.098;2024-02-28T00:24:13;31.10;;;13.13;;
9789;SDS011;4934;50.852;8.098;2024-02-28T00:26:42;30.00;;;13.30;;
9789;SDS011;4934;50.852;8.098;2024-02-28T00:29:08;33.27;;;13.63;;
9789;SDS011;4934;50.852;8.098;2024-02-28T00:31:34;36.07;;;14.27;;
9789;SDS011;4934;50.852;8.098;2024-02-28T00:34:00;29.10;;;13.30;;
9789;SDS011;4934;50.852;8.098;2024-02-28T00:36:26;35.20;;;14.27;;
9789;SDS011;4934;50.852;8.098;2024-02-28T00:38:51;31.27;;;12.63;;
9789;SDS011;4934;50.852;8.098;2024-02-28T00:41:17;36.07;;;14.77;;
9789;SDS011;4934;50.852;8.098;2024-02-28T00:43:43;36.60;;;14.03;;
9789;SDS011;4934;50.852;8.098;2024-02-28T00:46:08;32.17;;;13.07;;
9789;SDS011;4934;50.852;8.098;2024-02-28T00:48:40;31.45;;;13.35;;
9789;SDS011;4934;50.852;8.098;2024-02-28T00:53:33;32.57;;;13.67;;
9789;SDS011;4934;50.852;8.098;2024-02-28T00:55:58;32.63;;;13.33;;
9789;SDS011;4934;50.852;8.098;2024-02-28T00:58:24;31.83;;;14.90;;
9789;SDS011;4934;50.852;8.098;2024-02-28T01:00:52;34.33;;;13.82;;
9789;SDS011;4934;50.852;8.098;2024-02-28T01:03:18;35.97;;;15.20;;
9789;SDS011;4934;50.852;8.098;2024-02-28T01:05:44;29.60;;;13.27;;
9789;SDS011;4934;50.852;8.098;2024-02-28T01:08:09;33.87;;;14.80;;
9789;SDS011;4934;50.852;8.098;2024-02-28T01:10:35;26.90;;;11.47;;
9789;SDS011;4934;50.852;8.098;2024-02-28T01:13:01;30.27;;;13.10;;
9789;SDS011;4934;50.852;8.098;2024-02-28T01:15:27;31.23;;;13.83;;
9789;SDS011;4934;50.852;8.098;2024-02-28T01:17:53;25.80;;;11.43;;
9789;SDS011;4934;50.852;8.098;2024-02-28T01:20:18;25.73;;;11.60;;
9789;SDS011;4934;50.852;8.098;2024-02-28T01:22:44;32.17;;;13.30;;
9789;SDS011;4934;50.852;8.098;2024-02-28T01:25:09;31.00;;;13.50;;
9789;SDS011;4934;50.852;8.098;2024-02-28T01:27:35;36.67;;;14.83;;
9789;SDS011;4934;50.852;8.098;2024-02-28T01:30:01;37.37;;;14.23;;
9789;SDS011;4934;50.852;8.098;2024-02-28T01:32:27;35.07;;;13.00;;
9789;SDS011;4934;50.852;8.098;2024-02-28T01:34:54;44.77;;;16.00;;
9789;SDS011;4934;50.852;8.098;2024-02-28T01:37:19;41.37;;;16.30;;
9789;SDS011;4934;50.852;8.098;2024-02-28T01:39:45;42.77;;;15.77;;
9789;SDS011;4934;50.852;8.098;2024-02-28T01:42:11;43.93;;;16.67;;
9789;SDS011;4934;50.852;8.098;2024-02-28T01:44:38;52.43;;;17.63;;
9789;SDS011;4934;50.852;8.098;2024-02-28T01:47:09;51.20;;;19.50;;
9789;SDS011;4934;50.852;8.098;2024-02-28T01:49:37;46.10;;;15.03;;
9789;SDS011;4934;50.852;8.098;2024-02-28T01:52:03;54.00;;;17.50;;
9789;SDS011;4934;50.852;8.098;2024-02-28T01:54:29;49.53;;;17.07;;
9789;SDS011;4934;50.852;8.098;2024-02-28T01:56:57;49.37;;;17.63;;
9789;SDS011;4934;50.852;8.098;2024-02-28T01:59:23;59.17;;;19.10;;
9789;SDS011;4934;50.852;8.098;2024-02-28T02:01:51;60.30;;;18.20;;
9789;SDS011;4934;50.852;8.098;2024-02-28T02:04:16;66.60;;;20.10;;
9789;SDS011;4934;50.852;8.098;2024-02-28T02:06:42;52.10;;;17.83;;
9789;SDS011;4934;50.852;8.098;2024-02-28T02:09:10;58.25;;;17.58;;
9789;SDS011;4934;50.852;8.098;2024-02-28T02:11:36;59.13;;;18.33;;
9789;SDS011;4934;50.852;8.098;2024-02-28T02:14:02;57.60;;;18.20;;
9789;SDS011;4934;50.852;8.098;2024-02-28T02:16:28;60.17;;;18.83;;
9789;SDS011;4934;50.852;8.098;2024-02-28T02:18:55;50.17;;;16.87;;
9789;SDS011;4934;50.852;8.098;2024-02-28T02:21:22;62.90;;;20.53;;
9789;SDS011;4934;50.852;8.098;2024-02-28T02:23:52;65.00;;;21.27;;
9789;SDS011;4934;50.852;8.098;2024-02-28T02:26:17;75.20;;;21.33;;
9789;SDS011;4934;50.852;8.098;2024-02-28T02:28:43;64.97;;;20.07;;
9789;SDS011;4934;50.852;8.098;2024-02-28T02:31:10;58.53;;;19.90;;
9789;SDS011;4934;50.852;8.098;2024-02-28T02:33:37;53.93;;;19.27;;
9789;SDS011;4934;50.852;8.098;2024-02-28T02:36:02;67.87;;;20.67;;
9789;SDS011;4934;50.852;8.098;2024-02-28T02:38:28;60.80;;;19.80;;
9789;SDS011;4934;50.852;8.098;2024-02-28T02:40:54;59.30;;;21.33;;
9789;SDS011;4934;50.852;8.098;2024-02-28T02:43:19;64.33;;;21.47;;
9789;SDS011;4934;50.852;8.098;2024-02-28T02:45:45;64.40;;;20.07;;
9789;SDS011;4934;50.852;8.098;2024-02-28T02:48:10;62.27;;;18.80;;
9789;SDS011;4934;50.852;8.098;2024-02-28T02:50:36;65.63;;;18.70;;
9789;SDS011;4934;50.852;8.098;2024-02-28T02:53:02;61.07;;;20.50;;
9789;SDS011;4934;50.852;8.098;2024-02-28T02:55:28;59.90;;;19.33;;
9789;SDS011;4934;50.852;8.098;2024-02-28T02:57:54;72.00;;;20.70;;
9789;SDS011;4934;50.852;8.098;2024-02-28T03:00:21;60.97;;;20.57;;
9789;SDS011;4934;50.852;8.098;2024-02-28T03:02:46;60.47;;;18.67;;
9789;SDS011;4934;50.852;8.098;2024-02-28T03:05:12;139.30;;;25.50;;
9789;SDS011;4934;50.852;8.098;2024-02-28T03:07:38;46.73;;;16.33;;
9789;SDS011;4934;50.852;8.098;2024-02-28T03:10:04;52.43;;;18.37;;
9789;SDS011;4934;50.852;8.098;2024-02-28T03:12:30;72.57;;;21.70;;
9789;SDS011;4934;50.852;8.098;2024-02-28T03:14:56;70.53;;;22.23;;
9789;SDS011;4934;50.852;8.098;2024-02-28T03:17:22;64.10;;;21.57;;
9789;SDS011;4934;50.852;8.098;2024-02-28T03:19:47;62.57;;;19.50;;
9789;SDS011;4934;50.852;8.098;2024-02-28T03:22:13;58.13;;;19.63;;
9789;SDS011;4934;50.852;8.098;2024-02-28T03:24:39;53.40;;;19.63;;
9789;SDS011;4934;50.852;8.098;2024-02-28T03:27:04;76.30;;;22.53;;
9789;SDS011;4934;50.852;8.098;2024-02-28T03:29:30;72.73;;;23.57;;
9789;SDS011;4934;50.852;8.098;2024-02-28T03:31:56;81.67;;;22.73;;
9789;SDS011;4934;50.852;8.098;2024-02-28T03:34:23;66.87;;;20.63;;
9789;SDS011;4934;50.852;8.098;2024-02-28T03:36:48;72.13;;;22.43;;
9789;SDS011;4934;50.852;8.098;2024-02-28T03:39:14;66.00;;;23.33;;
9789;SDS011;4934;50.852;8.098;2024-02-28T03:41:40;59.77;;;20.63;;
9789;SDS011;4934;50.852;8.098;2024-02-28T03:44:05;82.43;;;20.83;;
9789;SDS011;4934;50.852;8.098;2024-02-28T03:46:31;61.57;;;21.13;;
9789;SDS011;4934;50.852;8.098;2024-02-28T03:48:56;72.63;;;21.97;;
9789;SDS011;4934;50.852;8.098;2024-02-28T03:51:22;57.43;;;20.10;;
9789;SDS011;4934;50.852;8.098;2024-02-28T03:53:48;62.93;;;21.77;;
9789;SDS011;4934;50.852;8.098;2024-02-28T03:56:13;63.33;;;20.80;;
9789;SDS011;4934;50.852;8.098;2024-02-28T03:58:46;77.03;;;20.87;;
9789;SDS011;4934;50.852;8.098;2024-02-28T04:01:11;62.77;;;22.13;;
9789;SDS011;4934;50.852;8.098;2024-02-28T04:03:38;73.30;;;22.20;;
9789;SDS011;4934;50.852;8.098;2024-02-28T04:06:04;63.93;;;21.17;;
9789;SDS011;4934;50.852;8.098;2024-02-28T04:08:29;80.07;;;21.17;;
9789;SDS011;4934;50.852;8.098;2024-02-28T04:10:55;64.00;;;21.40;;
9789;SDS011;4934;50.852;8.098;2024-02-28T04:13:20;65.40;;;21.47;;
9789;SDS011;4934;50.852;8.098;2024-02-28T04:15:46;64.80;;;20.23;;
9789;SDS011;4934;50.852;8.098;2024-02-28T04:18:11;64.87;;;19.93;;
9789;SDS011;4934;50.852;8.098;2024-02-28T04:20:37;81.73;;;23.17;;
9789;SDS011;4934;50.852;8.098;2024-02-28T04:23:03;64.93;;;22.60;;
9789;SDS011;4934;50.852;8.098;2024-02-28T04:25:29;68.37;;;21.13;;
9789;SDS011;4934;50.852;8.098;2024-02-28T04:27:55;65.27;;;20.37;;
9789;SDS011;4934;50.852;8.098;2024-02-28T04:30:22;75.27;;;20.33;;
9789;SDS011;4934;50.852;8.098;2024-02-28T04:32:47;71.40;;;19.87;;
9789;SDS011;4934;50.852;8.098;2024-02-28T04:35:13;107.60;;;24.30;;
9789;SDS011;4934;50.852;8.098;2024-02-28T04:37:43;59.57;;;20.67;;
9789;SDS011;4934;50.852;8.098;2024-02-28T04:40:09;83.83;;;22.80;;
9789;SDS011;4934;50.852;8.098;2024-02-28T04:42:35;72.27;;;22.03;;
9789;SDS011;4934;50.852;8.098;2024-02-28T04:45:01;62.03;;;20.97;;
9789;SDS011;4934;50.852;8.098;2024-02-28T04:47:27;77.70;;;21.50;;
9789;SDS011;4934;50.852;8.098;2024-02-28T04:49:53;74.27;;;22.10;;
9789;SDS011;4934;50.852;8.098;2024-02-28T04:52:18;61.70;;;20.57;;
9789;SDS011;4934;50.852;8.098;2024-02-28T04:54:44;76.87;;;21.03;;
9789;SDS011;4934;50.852;8.098;2024-02-28T04:57:10;72.43;;;20.57;;
9789;SDS011;4934;50.852;8.098;2024-02-28T04:59:35;57.70;;;19.50;;
9789;SDS011;4934;50.852;8.098;2024-02-28T05:02:01;59.67;;;19.27;;
9789;SDS011;4934;50.852;8.098;2024-02-28T05:04:27;73.57;;;21.70;;
9789;SDS011;4934;50.852;8.098;2024-02-28T05:06:52;74.57;;;20.60;;
9789;SDS011;4934;50.852;8.098;2024-02-28T05:09:18;69.33;;;22.67;;
9789;SDS011;4934;50.852;8.098;2024-02-28T05:11:44;80.63;;;21.33;;
9789;SDS011;4934;50.852;8.098;2024-02-28T05:14:10;86.20;;;20.93;;
9789;SDS011;4934;50.852;8.098;2024-02-28T05:16:36;79.27;;;24.13;;
9789;SDS011;4934;50.852;8.098;2024-02-28T05:19:01;75.73;;;23.37;;
9789;SDS011;4934;50.852;8.098;2024-02-28T05:21:29;72.33;;;23.90;;
9789;SDS011;4934;50.852;8.098;2024-02-28T05:23:55;94.60;;;23.63;;
9789;SDS011;4934;50.852;8.098;2024-02-28T05:26:20;116.13;;;24.30;;
9789;SDS011;4934;50.852;8.098;2024-02-28T05:28:46;96.33;;;25.60;;
9789;SDS011;4934;50.852;8.098;2024-02-28T05:31:22;84.07;;;23.50;;
9789;SDS011;4934;50.852;8.098;2024-02-28T05:33:52;69.50;;;21.80;;
9789;SDS011;4934;50.852;8.098;2024-02-28T05:36:19;83.47;;;23.63;;
9789;SDS011;4934;50.852;8.098;2024-02-28T05:38:53;68.17;;;21.50;;
9789;SDS011;4934;50.852;8.098;2024-02-28T05:41:20;70.45;;;21.08;;
9789;SDS011;4934;50.852;8.098;2024-02-28T05:43:46;59.37;;;20.23;;
9789;SDS011;4934;50.852;8.098;2024-02-28T05:46:12;67.77;;;21.33;;
9789;SDS011;4934;50.852;8.098;2024-02-28T05:48:38;81.77;;;23.43;;
9789;SDS011;4934;50.852;8.098;2024-02-28T05:51:06;70.72;;;22.17;;
9789;SDS011;4934;50.852;8.098;2024-02-28T05:53:31;90.67;;;22.37;;
9789;SDS011;4934;50.852;8.098;2024-02-28T05:58:26;70.40;;;20.17;;
9789;SDS011;4934;50.852;8.098;2024-02-28T06:00:53;110.00;;;26.10;;
9789;SDS011;4934;50.852;8.098;2024-02-28T06:03:18;151.33;;;28.73;;
9789;SDS011;4934;50.852;8.098;2024-02-28T06:05:44;72.30;;;23.37;;
9789;SDS011;4934;50.852;8.098;2024-02-28T06:08:10;79.83;;;24.43;;
9789;SDS011;4934;50.852;8.098;2024-02-28T06:10:35;68.83;;;21.57;;
9789;SDS011;4934;50.852;8.098;2024-02-28T06:13:02;74.43;;;21.83;;
9789;SDS011;4934;50.852;8.098;2024-02-28T06:15:27;75.50;;;23.77;;
9789;SDS011;4934;50.852;8.098;2024-02-28T06:17:57;137.20;;;32.20;;
9789;SDS011;4934;50.852;8.098;2024-02-28T06:20:25;97.63;;;25.80;;
9789;SDS011;4934;50.852;8.098;2024-02-28T06:22:51;84.77;;;25.53;;
9789;SDS011;4934;50.852;8.098;2024-02-28T06:25:17;90.73;;;22.53;;
9789;SDS011;4934;50.852;8.098;2024-02-28T06:27:44;81.07;;;22.90;;
9789;SDS011;4934;50.852;8.098;2024-02-28T06:30:11;70.57;;;22.33;;
9789;SDS011;4934;50.852;8.098;2024-02-28T06:32:39;77.40;;;22.97;;
9789;SDS011;4934;50.852;8.098;2024-02-28T06:35:06;75.47;;;22.83;;
9789;SDS011;4934;50.852;8.098;2024-02-28T06:37:32;72.90;;;20.77;;
9789;SDS011;4934;50.852;8.098;2024-02-28T06:39:58;79.57;;;23.10;;
9789;SDS011;4934;50.852;8.098;2024-02-28T06:42:24;71.03;;;23.10;;
9789;SDS011;4934;50.852;8.098;2024-02-28T06:44:49;68.67;;;21.80;;
9789;SDS011;4934;50.852;8.098;2024-02-28T06:47:15;72.70;;;23.67;;
9789;SDS011;4934;50.852;8.098;2024-02-28T06:49:41;139.48;;;26.23;;
9789;SDS011;4934;50.852;8.098;2024-02-28T06:52:07;200.63;;;45.57;;
9789;SDS011;4934;50.852;8.098;2024-02-28T06:54:32;432.43;;;130.97;;
9789;SDS011;4934;50.852;8.098;2024-02-28T06:56:58;201.67;;;49.80;;
9789;SDS011;4934;50.852;8.098;2024-02-28T06:59:23;259.00;;;40.07;;
9789;SDS011;4934;50.852;8.098;2024-02-28T07:01:49;252.87;;;36.33;;
9789;SDS011;4934;50.852;8.098;2024-02-28T07:04:14;80.90;;;25.50;;
9789;SDS011;4934;50.852;8.098;2024-02-28T07:06:40;80.97;;;26.17;;
9789;SDS011;4934;50.852;8.098;2024-02-28T07:09:09;83.37;;;23.63;;
9789;SDS011;4934;50.852;8.098;2024-02-28T07:14:00;82.20;;;23.10;;
9789;SDS011;4934;50.852;8.098;2024-02-28T07:16:29;78.23;;;24.63;;
9789;SDS011;4934;50.852;8.098;2024-02-28T07:18:55;77.73;;;23.13;;
9789;SDS011;4934;50.852;8.098;2024-02-28T07:21:20;97.50;;;23.43;;
9789;SDS011;4934;50.852;8.098;2024-02-28T07:23:46;142.30;;;26.77;;
9789;SDS011;4934;50.852;8.098;2024-02-28T07:26:15;184.00;;;30.53;;
9789;SDS011;4934;50.852;8.098;2024-02-28T07:28:41;121.33;;;26.63;;
9789;SDS011;4934;50.852;8.098;2024-02-28T07:31:06;101.43;;;25.17;;
9789;SDS011;4934;50.852;8.098;2024-02-28T07:33:32;109.40;;;24.87;;
9789;SDS011;4934;50.852;8.098;2024-02-28T07:35:57;110.27;;;23.47;;
9789;SDS011;4934;50.852;8.098;2024-02-28T07:38:26;157.05;;;28.17;;
9789;SDS011;4934;50.852;8.098;2024-02-28T07:40:52;98.20;;;24.73;;
9789;SDS011;4934;50.852;8.098;2024-02-28T07:43:18;84.30;;;24.57;;
9789;SDS011;4934;50.852;8.098;2024-02-28T07:45:44;144.13;;;30.10;;
9789;SDS011;4934;50.852;8.098;2024-02-28T07:48:09;185.87;;;29.60;;
9789;SDS011;4934;50.852;8.098;2024-02-28T07:50:35;95.47;;;22.93;;
9789;SDS011;4934;50.852;8.098;2024-02-28T07:53:00;108.60;;;23.23;;
9789;SDS011;4934;50.852;8.098;2024-02-28T07:55:26;107.73;;;26.93;;
9789;SDS011;4934;50.852;8.098;2024-02-28T07:57:52;111.97;;;22.97;;
9789;SDS011;4934;50.852;8.098;2024-02-28T08:00:18;102.30;;;26.57;;
9789;SDS011;4934;50.852;8.098;2024-02-28T08:02:44;90.63;;;24.93;;
9789;SDS011;4934;50.852;8.098;2024-02-28T08:05:10;116.63;;;26.67;;
9789;SDS011;4934;50.852;8.098;2024-02-28T08:07:36;123.93;;;26.23;;
9789;SDS011;4934;50.852;8.098;2024-02-28T08:10:02;81.30;;;22.77;;
9789;SDS011;4934;50.852;8.098;2024-02-28T08:12:30;110.97;;;26.88;;
9789;SDS011;4934;50.852;8.098;2024-02-28T08:14:56;96.90;;;24.20;;
9789;SDS011;4934;50.852;8.098;2024-02-28T08:17:21;91.83;;;23.03;;
9789;SDS011;4934;50.852;8.098;2024-02-28T08:19:47;87.33;;;24.50;;
9789;SDS011;4934;50.852;8.098;2024-02-28T08:22:12;116.63;;;27.40;;
9789;SDS011;4934;50.852;8.098;2024-02-28T08:24:38;90.90;;;25.67;;
9789;SDS011;4934;50.852;8.098;2024-02-28T08:27:04;105.20;;;25.97;;
9789;SDS011;4934;50.852;8.098;2024-02-28T08:29:30;69.87;;;20.83;;
9789;SDS011;4934;50.852;8.098;2024-02-28T08:31:57;87.50;;;23.17;;
9789;SDS011;4934;50.852;8.098;2024-02-28T08:34:23;85.63;;;22.30;;
9789;SDS011;4934;50.852;8.098;2024-02-28T08:36:49;76.10;;;21.33;;
9789;SDS011;4934;50.852;8.098;2024-02-28T08:39:14;72.60;;;21.60;;
9789;SDS011;4934;50.852;8.098;2024-02-28T08:41:40;75.13;;;21.40;;
9789;SDS011;4934;50.852;8.098;2024-02-28T08:44:05;87.03;;;23.10;;
9789;SDS011;4934;50.852;8.098;2024-02-28T08:46:31;83.67;;;21.43;;
9789;SDS011;4934;50.852;8.098;2024-02-28T08:48:56;94.10;;;25.27;;
9789;SDS011;4934;50.852;8.098;2024-02-28T08:51:22;84.40;;;25.50;;
9789;SDS011;4934;50.852;8.098;2024-02-28T08:53:48;90.77;;;25.67;;
9789;SDS011;4934;50.852;8.098;2024-02-28T08:56:13;79.63;;;22.93;;
9789;SDS011;4934;50.852;8.098;2024-02-28T08:58:39;79.47;;;22.67;;
9789;SDS011;4934;50.852;8.098;2024-02-28T09:01:05;92.40;;;24.45;;
9789;SDS011;4934;50.852;8.098;2024-02-28T09:03:30;78.67;;;21.93;;
9789;SDS011;4934;50.852;8.098;2024-02-28T09:05:57;83.47;;;23.17;;
9789;SDS011;4934;50.852;8.098;2024-02-28T09:08:22;73.60;;;22.58;;
9789;SDS011;4934;50.852;8.098;2024-02-28T09:10:48;83.50;;;22.92;;
9789;SDS011;4934;50.852;8.098;2024-02-28T09:13:13;79.25;;;22.05;;
9789;SDS011;4934;50.852;8.098;2024-02-28T09:15:39;78.15;;;23.05;;
9789;SDS011;4934;50.852;8.098;2024-02-28T09:18:05;73.20;;;21.67;;
9789;SDS011;4934;50.852;8.098;2024-02-28T09:20:32;74.25;;;22.08;;
9789;SDS011;4934;50.852;8.098;2024-02-28T09:22:57;70.55;;;22.67;;
9789;SDS011;4934;50.852;8.098;2024-02-28T09:25:23;77.85;;;24.50;;
9789;SDS011;4934;50.852;8.098;2024-02-28T09:27:49;73.45;;;22.55;;
9789;SDS011;4934;50.852;8.098;2024-02-28T09:30:14;68.80;;;21.20;;
9789;SDS011;4934;50.852;8.098;2024-02-28T09:32:40;75.50;;;22.35;;
9789;SDS011;4934;50.852;8.098;2024-02-28T09:35:08;63.80;;;19.45;;
9789;SDS011;4934;50.852;8.098;2024-02-28T09:37:34;61.50;;;20.02;;
9789;SDS011;4934;50.852;8.098;2024-02-28T09:40:02;62.25;;;19.27;;
9789;SDS011;4934;50.852;8.098;2024-02-28T09:42:28;80.95;;;21.48;;
9789;SDS011;4934;50.852;8.098;2024-02-28T09:44:53;67.00;;;21.65;;
9789;SDS011;4934;50.852;8.098;2024-02-28T09:47:19;71.47;;;22.48;;
9789;SDS011;4934;50.852;8.098;2024-02-28T09:49:45;73.68;;;22.65;;
9789;SDS011;4934;50.852;8.098;2024-02-28T09:52:15;70.70;;;23.83;;
9789;SDS011;4934;50.852;8.098;2024-02-28T09:54:40;67.88;;;22.05;;
9789;SDS011;4934;50.852;8.098;2024-02-28T09:57:09;64.22;;;21.20;;
9789;SDS011;4934;50.852;8.098;2024-02-28T09:59:36;67.43;;;21.58;;
9789;SDS011;4934;50.852;8.098;2024-02-28T10:02:04;73.05;;;21.63;;
9789;SDS011;4934;50.852;8.098;2024-02-28T10:04:31;61.97;;;20.38;;
9789;SDS011;4934;50.852;8.098;2024-02-28T10:06:59;65.65;;;20.67;;
9789;SDS011;4934;50.852;8.098;2024-02-28T10:09:37;62.67;;;20.98;;
9789;SDS011;4934;50.852;8.098;2024-02-28T10:12:03;61.88;;;20.33;;
9789;SDS011;4934;50.852;8.098;2024-02-28T10:14:29;73.70;;;23.27;;
9789;SDS011;4934;50.852;8.098;2024-02-28T10:16:55;67.32;;;20.67;;
9789;SDS011;4934;50.852;8.098;2024-02-28T10:19:20;71.18;;;21.45;;
9789;SDS011;4934;50.852;8.098;2024-02-28T10:21:46;66.72;;;21.27;;
9789;SDS011;4934;50.852;8.098;2024-02-28T10:24:12;74.82;;;23.08;;
9789;SDS011;4934;50.852;8.098;2024-02-28T10:26:44;70.55;;;23.02;;
9789;SDS011;4934;50.852;8.098;2024-02-28T10:29:10;75.60;;;22.88;;
9789;SDS011;4934;50.852;8.098;2024-02-28T10:31:37;72.32;;;22.55;;
9789;SDS011;4934;50.852;8.098;2024-02-28T10:34:02;72.53;;;21.33;;
9789;SDS011;4934;50.852;8.098;2024-02-28T10:36:30;72.07;;;22.27;;
9789;SDS011;4934;50.852;8.098;2024-02-28T10:38:57;68.63;;;23.00;;
9789;SDS011;4934;50.852;8.098;2024-02-28T10:41:25;67.72;;;23.05;;
9789;SDS011;4934;50.852;8.098;2024-02-28T10:43:51;77.75;;;25.02;;
9789;SDS011;4934;50.852;8.098;2024-02-28T10:46:18;72.57;;;23.33;;
9789;SDS011;4934;50.852;8.098;2024-02-28T10:48:46;70.57;;;21.80;;
9789;SDS011;4934;50.852;8.098;2024-02-28T10:51:16;65.53;;;23.05;;
9789;SDS011;4934;50.852;8.098;2024-02-28T10:53:47;61.85;;;21.67;;
9789;SDS011;4934;50.852;8.098;2024-02-28T10:56:20;72.25;;;22.60;;
9789;SDS011;4934;50.852;8.098;2024-02-28T10:58:52;82.93;;;23.65;;
9789;SDS011;4934;50.852;8.098;2024-02-28T11:01:20;70.10;;;22.48;;
9789;SDS011;4934;50.852;8.098;2024-02-28T11:03:46;58.50;;;21.10;;
9789;SDS011;4934;50.852;8.098;2024-02-28T11:06:20;70.18;;;21.48;;
9789;SDS011;4934;50.852;8.098;2024-02-28T11:08:47;66.97;;;21.50;;
9789;SDS011;4934;50.852;8.098;2024-02-28T11:11:14;66.38;;;21.42;;
9789;SDS011;4934;50.852;8.098;2024-02-28T11:13:50;70.78;;;21.05;;
9789;SDS011;4934;50.852;8.098;2024-02-28T11:16:18;69.28;;;24.50;;
9789;SDS011;4934;50.852;8.098;2024-02-28T11:19:01;64.93;;;22.17;;
9789;SDS011;4934;50.852;8.098;2024-02-28T11:21:28;63.50;;;22.17;;
9789;SDS011;4934;50.852;8.098;2024-02-28T11:23:58;73.18;;;23.30;;
9789;SDS011;4934;50.852;8.098;2024-02-28T11:26:25;60.72;;;20.90;;
9789;SDS011;4934;50.852;8.098;2024-02-28T11:28:52;59.05;;;23.05;;
9789;SDS011;4934;50.852;8.098;2024-02-28T11:31:19;58.40;;;19.98;;
9789;SDS011;4934;50.852;8.098;2024-02-28T11:33:45;61.28;;;20.80;;
9789;SDS011;4934;50.852;8.098;2024-02-28T11:36:11;63.67;;;20.55;;
9789;SDS011;4934;50.852;8.098;2024-02-28T11:38:38;66.00;;;21.90;;
9789;SDS011;4934;50.852;8.098;2024-02-28T11:41:06;68.70;;;22.10;;
9789;SDS011;4934;50.852;8.098;2024-02-28T11:43:32;63.05;;;20.98;;
9789;SDS011;4934;50.852;8.098;2024-02-28T11:45:59;61.90;;;22.05;;
9789;SDS011;4934;50.852;8.098;2024-02-28T11:48:25;57.47;;;21.40;;
9789;SDS011;4934;50.852;8.098;2024-02-28T11:50:53;56.25;;;19.80;;
9789;SDS011;4934;50.852;8.098;2024-02-28T11:53:19;55.28;;;19.63;;
9789;SDS011;4934;50.852;8.098;2024-02-28T11:55:45;52.22;;;19.27;;
9789;SDS011;4934;50.852;8.098;2024-02-28T11:58:12;54.33;;;20.10;;
9789;SDS011;4934;50.852;8.098;2024-02-28T12:00:56;60.42;;;20.35;;
9789;SDS011;4934;50.852;8.098;2024-02-28T12:03:22;56.10;;;19.52;;
9789;SDS011;4934;50.852;8.098;2024-02-28T12:05:49;58.05;;;19.75;;
9789;SDS011;4934;50.852;8.098;2024-02-28T12:08:16;47.65;;;20.38;;
9789;SDS011;4934;50.852;8.098;2024-02-28T12:10:44;58.38;;;20.42;;
9789;SDS011;4934;50.852;8.098;2024-02-28T12:13:10;51.22;;;19.50;;
9789;SDS011;4934;50.852;8.098;2024-02-28T12:15:38;49.15;;;19.33;;
9789;SDS011;4934;50.852;8.098;2024-02-28T12:18:09;52.88;;;18.67;;
9789;SDS011;4934;50.852;8.098;2024-02-28T12:20:37;54.45;;;19.30;;
9789;SDS011;4934;50.852;8.098;2024-02-28T12:23:04;45.60;;;17.92;;
9789;SDS011;4934;50.852;8.098;2024-02-28T12:25:29;50.30;;;18.38;;
9789;SDS011;4934;50.852;8.098;2024-02-28T12:27:56;47.03;;;18.05;;
9789;SDS011;4934;50.852;8.098;2024-02-28T12:30:21;46.17;;;17.00;;
9789;SDS011;4934;50.852;8.098;2024-02-28T12:32:47;45.63;;;18.00;;
9789;SDS011;4934;50.852;8.098;2024-02-28T12:35:13;49.03;;;18.83;;
9789;SDS011;4934;50.852;8.098;2024-02-28T12:37:38;50.47;;;18.95;;
9789;SDS011;4934;50.852;8.098;2024-02-28T12:40:04;48.38;;;18.52;;
9789;SDS011;4934;50.852;8.098;2024-02-28T12:42:31;47.83;;;17.83;;
9789;SDS011;4934;50.852;8.098;2024-02-28T12:44:57;42.35;;;16.92;;
9789;SDS011;4934;50.852;8.098;2024-02-28T12:47:22;48.75;;;18.10;;
9789;SDS011;4934;50.852;8.098;2024-02-28T12:49:48;47.33;;;16.98;;
9789;SDS011;4934;50.852;8.098;2024-02-28T12:52:13;48.38;;;17.02;;
9789;SDS011;4934;50.852;8.098;2024-02-28T12:54:39;37.05;;;15.27;;
9789;SDS011;4934;50.852;8.098;2024-02-28T12:57:05;50.78;;;19.50;;
9789;SDS011;4934;50.852;8.098;2024-02-28T12:59:31;43.17;;;18.05;;
9789;SDS011;4934;50.852;8.098;2024-02-28T13:01:58;42.55;;;16.98;;
9789;SDS011;4934;50.852;8.098;2024-02-28T13:04:23;41.75;;;18.38;;
9789;SDS011;4934;50.852;8.098;2024-02-28T13:06:50;42.53;;;17.40;;
9789;SDS011;4934;50.852;8.098;2024-02-28T13:09:18;38.97;;;15.40;;
9789;SDS011;4934;50.852;8.098;2024-02-28T13:11:43;45.90;;;18.38;;
9789;SDS011;4934;50.852;8.098;2024-02-28T13:14:09;38.53;;;14.70;;
9789;SDS011;4934;50.852;8.098;2024-02-28T13:16:35;41.00;;;16.20;;
9789;SDS011;4934;50.852;8.098;2024-02-28T13:19:01;39.75;;;17.08;;
9789;SDS011;4934;50.852;8.098;2024-02-28T13:21:27;40.97;;;16.48;;
9789;SDS011;4934;50.852;8.098;2024-02-28T13:23:53;69.95;;;26.05;;
9789;SDS011;4934;50.852;8.098;2024-02-28T13:26:18;67.18;;;24.92;;
9789;SDS011;4934;50.852;8.098;2024-02-28T13:28:45;40.28;;;16.35;;
9789;SDS011;4934;50.852;8.098;2024-02-28T13:31:11;37.90;;;15.40;;
9789;SDS011;4934;50.852;8.098;2024-02-28T13:33:37;39.22;;;15.32;;
9789;SDS011;4934;50.852;8.098;2024-02-28T13:36:03;39.75;;;14.95;;
9789;SDS011;4934;50.852;8.098;2024-02-28T13:38:29;42.20;;;17.10;;
9789;SDS011;4934;50.852;8.098;2024-02-28T13:40:57;38.53;;;14.02;;
9789;SDS011;4934;50.852;8.098;2024-02-28T13:43:23;38.78;;;16.38;;
9789;SDS011;4934;50.852;8.098;2024-02-28T13:45:49;40.25;;;15.88;;
9789;SDS011;4934;50.852;8.098;2024-02-28T13:48:17;41.30;;;16.15;;
9789;SDS011;4934;50.852;8.098;2024-02-28T13:50:46;37.70;;;16.70;;
9789;SDS011;4934;50.852;8.098;2024-02-28T13:53:12;42.13;;;16.50;;
9789;SDS011;4934;50.852;8.098;2024-02-28T13:55:40;37.67;;;15.25;;
9789;SDS011;4934;50.852;8.098;2024-02-28T13:58:07;37.10;;;15.40;;
9789;SDS011;4934;50.852;8.098;2024-02-28T14:00:34;38.28;;;15.77;;
9789;SDS011;4934;50.852;8.098;2024-02-28T14:03:01;35.55;;;14.70;;
9789;SDS011;4934;50.852;8.098;2024-02-28T14:05:27;32.85;;;14.27;;
9789;SDS011;4934;50.852;8.098;2024-02-28T14:07:53;35.17;;;14.73;;
9789;SDS011;4934;50.852;8.098;2024-02-28T14:10:19;31.95;;;13.13;;
9789;SDS011;4934;50.852;8.098;2024-02-28T14:12:44;37.13;;;14.60;;
9789;SDS011;4934;50.852;8.098;2024-02-28T14:15:11;32.10;;;13.18;;
9789;SDS011;4934;50.852;8.098;2024-02-28T14:17:36;32.92;;;13.73;;
9789;SDS011;4934;50.852;8.098;2024-02-28T14:20:03;33.92;;;14.77;;
9789;SDS011;4934;50.852;8.098;2024-02-28T14:22:30;32.10;;;13.70;;
9789;SDS011;4934;50.852;8.098;2024-02-28T14:24:55;35.40;;;14.40;;
9789;SDS011;4934;50.852;8.098;2024-02-28T14:27:21;36.25;;;14.85;;
9789;SDS011;4934;50.852;8.098;2024-02-28T14:29:46;32.83;;;13.10;;
9789;SDS011;4934;50.852;8.098;2024-02-28T14:32:14;30.15;;;12.85;;
9789;SDS011;4934;50.852;8.098;2024-02-28T14:34:40;35.67;;;13.45;;
9789;SDS011;4934;50.852;8.098;2024-02-28T14:37:07;33.13;;;13.05;;
9789;SDS011;4934;50.852;8.098;2024-02-28T14:39:32;32.25;;;11.52;;
9789;SDS011;4934;50.852;8.098;2024-02-28T14:41:59;27.83;;;10.73;;
9789;SDS011;4934;50.852;8.098;2024-02-28T14:44:24;25.83;;;11.93;;
9789;SDS011;4934;50.852;8.098;2024-02-28T14:46:50;25.25;;;11.45;;
9789;SDS011;4934;50.852;8.098;2024-02-28T14:49:16;29.50;;;11.75;;